createdAt,value
2019-02-14T00:00:38.718Z,8.23
2019-02-14T00:03:08.930Z,9.93
2019-02-14T00:05:39.194Z,7.87
2019-02-14T00:08:09.376Z,10.10
2019-02-14T00:10:39.617Z,11.43
2019-02-14T00:13:09.844Z,9.83
2019-02-14T00:15:40.090Z,9.73
2019-02-14T00:18:12.628Z,11.70
2019-02-14T00:20:42.879Z,12.23
2019-02-14T00:23:14.037Z,11.27
2019-02-14T00:25:44.298Z,9.90
2019-02-14T00:28:14.435Z,12.53
2019-02-14T00:30:44.610Z,13.17
2019-02-14T00:33:15.590Z,15.37
2019-02-14T00:35:45.938Z,14.13
2019-02-14T00:38:16.121Z,14.17
2019-02-14T00:43:28.611Z,15.27
2019-02-14T00:45:58.823Z,19.10
2019-02-14T00:48:29.070Z,16.53
2019-02-14T00:50:59.262Z,16.20
2019-02-14T00:53:29.439Z,17.47
2019-02-14T00:55:59.563Z,17.83
2019-02-14T00:58:29.691Z,17.33
2019-02-14T01:00:59.874Z,14.20
2019-02-14T01:03:30.103Z,20.27
2019-02-14T01:06:00.275Z,15.87
2019-02-14T01:08:30.498Z,13.77
2019-02-14T01:11:00.687Z,18.43
2019-02-14T01:13:30.923Z,14.57
2019-02-14T01:16:01.127Z,17.00
2019-02-14T01:18:31.294Z,21.27
2019-02-14T01:21:01.430Z,19.23
2019-02-14T01:23:31.666Z,17.03
2019-02-14T01:26:01.862Z,21.33
2019-02-14T01:28:32.120Z,21.87
2019-02-14T01:31:02.157Z,19.30
2019-02-14T01:33:33.172Z,17.67
2019-02-14T01:36:03.491Z,24.20
2019-02-14T01:38:33.673Z,24.50
2019-02-14T01:41:03.916Z,24.67
2019-02-14T01:43:33.965Z,23.77
2019-02-14T01:46:04.204Z,21.73
2019-02-14T01:48:34.338Z,22.30
2019-02-14T01:51:04.468Z,25.07
2019-02-14T01:53:34.571Z,19.40
2019-02-14T01:56:04.829Z,31.30
2019-02-14T01:58:35.032Z,33.93
2019-02-14T02:01:05.285Z,46.73
2019-02-14T02:03:35.470Z,31.43
2019-02-14T02:06:05.718Z,23.40
2019-02-14T02:08:35.929Z,35.23
2019-02-14T02:11:06.475Z,35.23
2019-02-14T02:13:36.602Z,28.27
2019-02-14T02:16:06.850Z,23.63
2019-02-14T02:18:38.630Z,22.27
2019-02-14T02:21:08.904Z,29.10
2019-02-14T02:23:39.095Z,34.13
2019-02-14T02:26:09.331Z,27.83
2019-02-14T02:28:39.550Z,37.83
2019-02-14T02:31:09.823Z,36.70
2019-02-14T02:33:40.821Z,33.23
2019-02-14T02:36:11.153Z,38.93
2019-02-14T02:38:41.348Z,47.43
2019-02-14T02:41:11.628Z,34.93
2019-02-14T02:43:41.826Z,39.20
2019-02-14T02:46:12.017Z,41.90
2019-02-14T02:48:42.216Z,62.13
2019-02-14T02:51:12.488Z,37.20
2019-02-14T02:53:42.687Z,46.53
2019-02-14T02:56:12.939Z,74.23
2019-02-14T02:58:43.153Z,66.77
2019-02-14T03:01:13.413Z,31.73
2019-02-14T03:03:43.533Z,30.77
2019-02-14T03:06:13.703Z,30.40
2019-02-14T03:08:43.827Z,43.20
2019-02-14T03:11:13.979Z,32.93
2019-02-14T03:13:44.120Z,47.40
2019-02-14T03:16:14.368Z,47.50
2019-02-14T03:18:44.557Z,49.00
2019-02-14T03:21:14.795Z,40.87
2019-02-14T03:23:44.939Z,36.10
2019-02-14T03:26:15.122Z,40.30
2019-02-14T03:28:45.327Z,50.00
2019-02-14T03:31:15.499Z,42.73
2019-02-14T03:33:46.556Z,27.83
2019-02-14T03:36:19.221Z,37.97
2019-02-14T03:38:48.672Z,29.33
2019-02-14T03:41:18.852Z,28.33
2019-02-14T03:43:48.994Z,30.97
2019-02-14T03:46:19.227Z,37.10
2019-02-14T03:48:49.430Z,34.40
2019-02-14T03:51:19.651Z,26.07
2019-02-14T03:53:49.852Z,25.57
2019-02-14T03:56:19.966Z,38.77
2019-02-14T03:58:50.091Z,41.33
2019-02-14T04:01:20.350Z,51.33
2019-02-14T04:03:50.550Z,41.47
2019-02-14T04:06:27.167Z,46.43
2019-02-14T04:08:52.708Z,42.90
2019-02-14T04:11:22.969Z,40.67
2019-02-14T04:13:53.198Z,58.77
2019-02-14T04:16:23.443Z,62.83
2019-02-14T04:18:53.665Z,87.23
2019-02-14T04:21:23.919Z,60.80
2019-02-14T04:23:54.146Z,38.53
2019-02-14T04:26:24.397Z,40.57
2019-02-14T04:28:54.615Z,38.20
2019-02-14T04:31:24.882Z,49.20
2019-02-14T04:33:56.073Z,44.00
2019-02-14T04:36:26.387Z,35.40
2019-02-14T04:38:56.595Z,39.27
2019-02-14T04:41:26.778Z,32.83
2019-02-14T04:43:57.004Z,38.77
2019-02-14T04:46:27.169Z,33.33
2019-02-14T04:48:57.360Z,36.50
2019-02-14T04:51:27.625Z,38.37
2019-02-14T04:53:57.948Z,49.67
2019-02-14T04:56:28.203Z,39.53
2019-02-14T04:58:58.414Z,39.47
2019-02-14T05:01:28.667Z,36.13
2019-02-14T05:03:58.852Z,37.87
2019-02-14T05:06:29.113Z,38.63
2019-02-14T05:08:59.294Z,36.63
2019-02-14T05:11:29.477Z,33.70
2019-02-14T05:13:59.679Z,34.07
2019-02-14T05:16:29.937Z,38.97
2019-02-14T05:19:00.131Z,36.27
2019-02-14T05:21:30.384Z,35.50
2019-02-14T05:24:00.582Z,39.13
2019-02-14T05:26:30.770Z,41.97
2019-02-14T05:29:00.950Z,41.67
2019-02-14T05:31:31.406Z,34.90
2019-02-14T05:34:02.439Z,59.50
2019-02-14T05:36:32.673Z,34.80
2019-02-14T05:39:03.486Z,57.67
2019-02-14T05:41:33.741Z,46.23
2019-02-14T05:44:03.923Z,48.60
2019-02-14T05:46:34.154Z,33.13
2019-02-14T05:49:04.333Z,40.30
2019-02-14T05:51:34.589Z,39.27
2019-02-14T05:54:04.698Z,31.97
2019-02-14T05:56:34.961Z,33.13
2019-02-14T05:59:05.055Z,33.20
2019-02-14T06:01:35.321Z,49.60
2019-02-14T06:04:05.496Z,46.70
2019-02-14T06:06:35.668Z,42.97
2019-02-14T06:09:06.380Z,46.37
2019-02-14T06:11:36.616Z,38.17
2019-02-14T06:14:06.854Z,42.70
2019-02-14T06:16:37.100Z,43.27
2019-02-14T06:19:07.326Z,47.07
2019-02-14T06:21:37.578Z,37.50
2019-02-14T06:24:07.784Z,35.63
2019-02-14T06:26:38.048Z,58.83
2019-02-14T06:29:08.246Z,35.77
2019-02-14T06:31:38.494Z,31.90
2019-02-14T06:34:09.693Z,35.77
2019-02-14T06:36:40.020Z,35.47
2019-02-14T06:39:10.224Z,46.43
2019-02-14T06:41:40.481Z,45.73
2019-02-14T06:44:10.710Z,49.23
2019-02-14T06:46:40.954Z,45.37
2019-02-14T06:49:11.180Z,58.70
2019-02-14T06:51:41.455Z,48.63
2019-02-14T06:54:11.671Z,38.47
2019-02-14T06:56:41.930Z,67.07
2019-02-14T06:59:12.131Z,71.10
2019-02-14T07:01:42.401Z,57.03
2019-02-14T07:04:12.539Z,33.57
2019-02-14T07:06:42.764Z,29.00
2019-02-14T07:09:12.979Z,36.43
2019-02-14T07:11:43.214Z,34.50
2019-02-14T07:14:13.447Z,39.00
2019-02-14T07:16:43.672Z,42.80
2019-02-14T07:19:13.814Z,34.33
2019-02-14T07:21:44.050Z,33.77
2019-02-14T07:24:14.240Z,40.97
2019-02-14T07:26:44.473Z,35.63
2019-02-14T07:29:14.656Z,45.87
2019-02-14T07:31:44.913Z,29.43
2019-02-14T07:34:15.966Z,45.03
2019-02-14T07:36:46.795Z,37.17
2019-02-14T07:39:17.627Z,56.37
2019-02-14T07:41:47.869Z,28.87
2019-02-14T07:44:17.996Z,28.50
2019-02-14T07:46:48.170Z,26.07
2019-02-14T07:49:18.354Z,33.47
2019-02-14T07:51:48.772Z,27.43
2019-02-14T07:54:19.058Z,23.60
2019-02-14T07:56:49.198Z,33.00
2019-02-14T07:59:19.384Z,26.73
2019-02-14T08:01:49.631Z,24.37
2019-02-14T08:04:19.836Z,37.93
2019-02-14T08:06:50.094Z,29.83
2019-02-14T08:09:20.257Z,26.13
2019-02-14T08:11:50.520Z,30.83
2019-02-14T08:14:20.614Z,30.60
2019-02-14T08:16:50.915Z,30.97
2019-02-14T08:19:21.137Z,31.67
2019-02-14T08:21:52.898Z,34.70
2019-02-14T08:24:23.116Z,40.30
2019-02-14T08:26:53.401Z,46.30
2019-02-14T08:29:25.061Z,32.20
2019-02-14T08:31:55.736Z,28.33
2019-02-14T08:34:28.521Z,25.67
2019-02-14T08:36:59.222Z,19.70
2019-02-14T08:39:29.594Z,25.00
2019-02-14T08:41:59.872Z,38.23
2019-02-14T08:44:30.058Z,30.30
2019-02-14T08:47:00.300Z,39.50
2019-02-14T08:49:30.507Z,24.77
2019-02-14T08:52:00.767Z,22.30
2019-02-14T08:54:30.991Z,26.07
2019-02-14T08:57:01.181Z,25.67
2019-02-14T08:59:31.606Z,19.93
2019-02-14T09:02:01.787Z,21.63
2019-02-14T09:04:32.005Z,22.47
2019-02-14T09:07:02.336Z,27.83
2019-02-14T09:09:32.565Z,13.27
2019-02-14T09:12:02.810Z,20.70
2019-02-14T09:14:33.350Z,24.03
2019-02-14T09:17:03.640Z,20.00
2019-02-14T09:19:33.902Z,25.50
2019-02-14T09:22:04.254Z,18.20
2019-02-14T09:24:34.592Z,20.10
2019-02-14T09:27:05.033Z,27.90
2019-02-14T09:29:37.000Z,26.43
2019-02-14T09:32:07.369Z,17.33
2019-02-14T09:34:38.618Z,19.73
2019-02-14T09:37:08.889Z,13.40
2019-02-14T09:39:40.982Z,18.17
2019-02-14T09:42:11.260Z,25.33
2019-02-14T09:44:41.440Z,21.93
2019-02-14T09:47:11.661Z,28.77
2019-02-14T09:49:41.867Z,20.83
2019-02-14T09:52:12.173Z,22.47
2019-02-14T09:54:44.325Z,19.33
2019-02-14T09:57:14.948Z,19.57
2019-02-14T09:59:45.218Z,19.77
2019-02-14T10:02:15.474Z,22.37
2019-02-14T10:04:45.717Z,19.03
2019-02-14T10:07:19.888Z,27.17
2019-02-14T10:09:50.110Z,19.90
2019-02-14T10:12:20.773Z,15.90
2019-02-14T10:14:50.939Z,21.13
2019-02-14T10:17:22.754Z,18.97
2019-02-14T10:19:53.257Z,16.27
2019-02-14T10:22:23.492Z,65.47
2019-02-14T10:24:54.913Z,27.50
2019-02-14T10:27:29.939Z,16.67
2019-02-14T10:30:02.512Z,21.97
2019-02-14T10:32:36.063Z,20.43
2019-02-14T10:35:11.511Z,17.50
2019-02-14T10:37:42.029Z,20.57
2019-02-14T10:40:14.369Z,21.00
2019-02-14T10:42:44.800Z,22.53
2019-02-14T10:45:23.052Z,13.80
2019-02-14T10:47:53.344Z,22.57
2019-02-14T10:50:24.544Z,16.60
2019-02-14T10:52:54.799Z,14.93
2019-02-14T10:55:25.018Z,29.83
2019-02-14T10:57:55.278Z,15.67
2019-02-14T11:00:26.511Z,30.33
2019-02-14T11:02:56.744Z,31.37
2019-02-14T11:05:27.135Z,28.90
2019-02-14T11:07:58.983Z,15.03
2019-02-14T11:10:30.201Z,20.17
2019-02-14T11:13:00.517Z,29.57
2019-02-14T11:15:30.721Z,16.33
2019-02-14T11:18:00.998Z,17.43
2019-02-14T11:20:31.320Z,20.37
2019-02-14T11:23:01.585Z,21.47
2019-02-14T11:25:40.015Z,17.33
2019-02-14T11:28:10.262Z,13.77
2019-02-14T11:30:40.738Z,11.73
2019-02-14T11:33:11.048Z,25.57
2019-02-14T11:35:42.132Z,29.87
2019-02-14T11:38:15.046Z,27.97
2019-02-14T11:40:45.249Z,33.30
2019-02-14T11:43:15.505Z,21.83
2019-02-14T11:45:51.040Z,32.77
2019-02-14T11:48:18.370Z,14.63
2019-02-14T11:50:50.626Z,26.60
2019-02-14T11:53:20.615Z,24.13
2019-02-14T11:55:55.879Z,40.13
2019-02-14T11:58:27.762Z,21.73
2019-02-14T12:00:57.828Z,19.23
2019-02-14T12:03:28.567Z,22.30
2019-02-14T12:05:58.772Z,22.80
2019-02-14T12:08:29.041Z,19.27
2019-02-14T12:10:59.299Z,17.00
2019-02-14T12:13:29.589Z,38.23
2019-02-14T12:15:59.817Z,24.00
2019-02-14T12:18:30.085Z,22.17
2019-02-14T12:21:00.311Z,24.97
2019-02-14T12:23:30.544Z,18.45
2019-02-14T12:26:01.353Z,20.37
2019-02-14T12:28:31.586Z,17.13
2019-02-14T12:31:01.804Z,22.77
2019-02-14T12:33:32.034Z,26.43
2019-02-14T12:36:02.429Z,25.23
2019-02-14T12:38:35.755Z,24.73
2019-02-14T12:41:06.021Z,21.17
2019-02-14T12:43:36.255Z,37.17
2019-02-14T12:46:06.494Z,34.60
2019-02-14T12:48:36.693Z,28.63
2019-02-14T12:51:06.918Z,21.53
2019-02-14T12:53:37.211Z,16.13
2019-02-14T12:56:07.436Z,30.97
2019-02-14T12:58:37.687Z,34.27
2019-02-14T13:01:10.736Z,39.10
2019-02-14T13:03:44.620Z,17.67
2019-02-14T13:06:14.897Z,43.80
2019-02-14T13:08:45.220Z,22.73
2019-02-14T13:11:15.459Z,23.93
2019-02-14T13:13:49.762Z,19.53
2019-02-14T13:16:19.217Z,28.20
2019-02-14T13:18:51.190Z,21.23
2019-02-14T13:21:26.275Z,21.60
2019-02-14T13:23:57.725Z,30.67
2019-02-14T13:26:28.036Z,29.97
2019-02-14T13:28:58.336Z,28.43
2019-02-14T13:31:32.168Z,39.60
2019-02-14T13:34:00.902Z,28.00
2019-02-14T13:36:37.378Z,22.90
2019-02-14T13:39:07.896Z,22.60
2019-02-14T13:41:38.173Z,22.60
2019-02-14T13:44:11.516Z,34.60
2019-02-14T13:46:41.509Z,26.00
2019-02-14T13:49:13.675Z,22.60
2019-02-14T13:51:43.895Z,27.73
2019-02-14T13:54:14.128Z,35.93
2019-02-14T13:56:53.740Z,36.50
2019-02-14T13:59:16.904Z,26.47
2019-02-14T14:01:48.781Z,20.80
2019-02-14T14:04:23.600Z,25.90
2019-02-14T14:06:54.333Z,44.43
2019-02-14T14:09:26.980Z,25.97
2019-02-14T14:12:26.701Z,20.40
2019-02-14T14:15:28.845Z,23.43
2019-02-14T14:18:27.070Z,36.23
2019-02-14T14:21:25.471Z,34.20
2019-02-14T14:24:02.699Z,47.20
2019-02-14T14:26:37.133Z,40.40
2019-02-14T14:29:15.572Z,49.73
2019-02-14T14:31:48.856Z,33.50
2019-02-14T14:34:19.163Z,39.20
2019-02-14T14:36:50.304Z,24.50
2019-02-14T14:39:20.611Z,53.30
2019-02-14T14:41:50.937Z,34.37
2019-02-14T14:44:22.823Z,36.67
2019-02-14T14:46:54.841Z,40.03
2019-02-14T14:49:25.373Z,28.23
2019-02-14T14:51:56.175Z,29.17
2019-02-14T14:54:26.518Z,31.00
2019-02-14T14:56:57.384Z,27.10
2019-02-14T14:59:28.932Z,28.33
2019-02-14T15:02:02.101Z,26.70
2019-02-14T15:04:51.108Z,44.73
2019-02-14T15:07:25.560Z,35.23
2019-02-14T15:09:57.789Z,31.55
2019-02-14T15:12:28.057Z,37.40
2019-02-14T15:14:59.937Z,27.17
2019-02-14T15:17:30.888Z,34.73
2019-02-14T15:20:01.333Z,27.77
2019-02-14T15:22:31.917Z,31.60
2019-02-14T15:25:03.872Z,26.17
2019-02-14T15:27:34.091Z,46.53
2019-02-14T15:30:06.192Z,32.37
2019-02-14T15:32:36.413Z,40.63
2019-02-14T15:35:08.559Z,37.57
2019-02-14T15:37:39.148Z,39.60
2019-02-14T15:40:10.708Z,28.67
2019-02-14T15:42:42.920Z,34.27
2019-02-14T15:45:13.243Z,36.83
2019-02-14T15:47:44.800Z,37.90
2019-02-14T15:50:16.216Z,35.07
2019-02-14T15:52:46.484Z,39.80
2019-02-14T15:55:16.842Z,34.13
2019-02-14T15:57:47.372Z,30.37
2019-02-14T16:00:17.662Z,31.50
2019-02-14T16:02:50.264Z,42.60
2019-02-14T16:05:20.071Z,33.73
2019-02-14T16:07:50.297Z,44.80
2019-02-14T16:10:21.144Z,33.73
2019-02-14T16:12:51.422Z,41.30
2019-02-14T16:15:21.721Z,41.83
2019-02-14T16:17:52.103Z,40.80
2019-02-14T16:20:22.340Z,35.67
2019-02-14T16:22:52.476Z,39.93
2019-02-14T16:25:22.646Z,34.80
2019-02-14T16:27:52.746Z,52.13
2019-02-14T16:30:24.465Z,40.23
2019-02-14T16:32:54.602Z,48.07
2019-02-14T16:35:24.894Z,51.43
2019-02-14T16:37:55.946Z,45.60
2019-02-14T16:40:28.178Z,46.07
2019-02-14T16:42:58.149Z,36.03
2019-02-14T16:45:28.321Z,49.45
2019-02-14T16:47:58.887Z,40.60
2019-02-14T16:50:29.127Z,40.10
2019-02-14T16:52:59.247Z,44.13
2019-02-14T16:55:29.430Z,39.90
2019-02-14T16:57:59.650Z,41.17
2019-02-14T17:00:29.899Z,49.50
2019-02-14T17:03:00.105Z,45.40
2019-02-14T17:05:30.374Z,52.07
2019-02-14T17:08:00.570Z,49.43
2019-02-14T17:10:36.585Z,45.10
2019-02-14T17:13:02.719Z,45.77
2019-02-14T17:15:32.964Z,55.30
2019-02-14T17:18:03.208Z,52.83
2019-02-14T17:20:33.477Z,40.27
2019-02-14T17:23:03.691Z,44.47
2019-02-14T17:25:33.928Z,46.10
2019-02-14T17:28:04.134Z,45.47
2019-02-14T17:30:34.391Z,43.80
2019-02-14T17:33:04.591Z,42.20
2019-02-14T17:35:34.774Z,48.37
2019-02-14T17:38:05.027Z,54.00
2019-02-14T17:40:35.402Z,61.87
2019-02-14T17:43:05.639Z,50.13
2019-02-14T17:45:35.788Z,54.67
2019-02-14T17:48:05.983Z,54.47
2019-02-14T17:50:36.174Z,50.90
2019-02-14T17:53:06.370Z,49.00
2019-02-14T17:55:36.632Z,52.93
2019-02-14T17:58:06.828Z,51.40
2019-02-14T18:00:37.109Z,57.40
2019-02-14T18:03:07.295Z,70.50
2019-02-14T18:05:37.544Z,65.13
2019-02-14T18:08:07.754Z,71.50
2019-02-14T18:10:37.936Z,68.77
2019-02-14T18:13:08.135Z,62.03
2019-02-14T18:15:38.307Z,64.10
2019-02-14T18:18:08.427Z,62.90
2019-02-14T18:20:38.597Z,68.43
2019-02-14T18:23:08.780Z,67.47
2019-02-14T18:25:39.012Z,72.10
2019-02-14T18:28:09.144Z,67.50
2019-02-14T18:30:39.398Z,69.20
2019-02-14T18:33:09.508Z,72.63
2019-02-14T18:35:39.739Z,73.27
2019-02-14T18:38:10.857Z,79.23
2019-02-14T18:40:41.202Z,94.90
2019-02-14T18:43:11.392Z,70.93
2019-02-14T18:45:41.552Z,83.50
2019-02-14T18:48:11.683Z,67.43
2019-02-14T18:50:41.861Z,65.97
2019-02-14T18:53:12.084Z,57.77
2019-02-14T18:55:42.324Z,65.27
2019-02-14T18:58:12.419Z,56.87
2019-02-14T19:00:42.687Z,59.40
2019-02-14T19:03:12.815Z,45.47
2019-02-14T19:05:43.077Z,49.23
2019-02-14T19:08:13.259Z,35.53
2019-02-14T19:10:43.523Z,31.23
2019-02-14T19:13:13.740Z,32.97
2019-02-14T19:15:43.987Z,35.17
2019-02-14T19:18:14.201Z,37.10
2019-02-14T19:20:44.447Z,28.43
2019-02-14T19:23:23.333Z,27.40
2019-02-14T19:25:46.609Z,28.13
2019-02-14T19:28:16.824Z,23.30
2019-02-14T19:30:47.077Z,25.80
2019-02-14T19:33:17.244Z,27.40
2019-02-14T19:35:47.519Z,26.73
2019-02-14T19:38:18.877Z,26.30
2019-02-14T19:40:49.229Z,18.93
2019-02-14T19:43:19.446Z,21.00
2019-02-14T19:45:49.704Z,20.67
2019-02-14T19:48:19.919Z,19.00
2019-02-14T19:50:50.192Z,33.33
2019-02-14T19:53:20.383Z,22.23
2019-02-14T19:55:50.645Z,22.87
2019-02-14T19:58:20.861Z,22.87
2019-02-14T20:00:51.088Z,26.87
2019-02-14T20:03:21.298Z,28.83
2019-02-14T20:05:51.587Z,25.90
2019-02-14T20:08:21.782Z,28.37
2019-02-14T20:10:52.182Z,26.90
2019-02-14T20:13:22.310Z,27.70
2019-02-14T20:15:52.565Z,32.47
2019-02-14T20:18:22.767Z,41.57
2019-02-14T20:20:53.046Z,32.33
2019-02-14T20:23:23.229Z,35.53
2019-02-14T20:25:53.437Z,32.83
2019-02-14T20:28:23.582Z,31.87
2019-02-14T20:30:53.756Z,30.40
2019-02-14T20:33:23.948Z,33.37
2019-02-14T20:35:54.214Z,30.67
2019-02-14T20:38:25.186Z,33.23
2019-02-14T20:40:55.522Z,34.13
2019-02-14T20:43:25.731Z,29.37
2019-02-14T20:45:55.879Z,34.87
2019-02-14T20:48:26.077Z,24.60
2019-02-14T20:50:56.343Z,28.47
2019-02-14T20:53:26.463Z,26.67
2019-02-14T20:55:56.698Z,32.67
2019-02-14T20:58:26.805Z,28.97
2019-02-14T21:00:57.345Z,42.70
2019-02-14T21:03:27.535Z,35.67
2019-02-14T21:05:57.790Z,35.03
2019-02-14T21:08:27.884Z,40.23
2019-02-14T21:10:58.054Z,30.87
2019-02-14T21:13:28.158Z,33.63
2019-02-14T21:15:58.445Z,33.73
2019-02-14T21:18:28.575Z,40.60
2019-02-14T21:20:58.817Z,36.87
2019-02-14T21:23:29.032Z,41.67
2019-02-14T21:25:59.308Z,40.63
2019-02-14T21:28:29.594Z,39.13
2019-02-14T21:30:59.823Z,39.40
2019-02-14T21:33:29.938Z,39.57
2019-02-14T21:36:00.179Z,35.40
2019-02-14T21:38:30.414Z,39.77
2019-02-14T21:41:00.631Z,43.83
2019-02-14T21:43:31.027Z,40.13
2019-02-14T21:46:01.386Z,34.17
2019-02-14T21:48:31.566Z,36.27
2019-02-14T21:51:01.813Z,32.57
2019-02-14T21:53:32.017Z,37.37
2019-02-14T21:56:02.268Z,53.73
2019-02-14T21:58:32.470Z,49.43
2019-02-14T22:01:03.312Z,45.77
2019-02-14T22:03:33.485Z,52.63
2019-02-14T22:06:03.756Z,53.93
2019-02-14T22:08:33.904Z,58.50
2019-02-14T22:11:04.153Z,66.40
2019-02-14T22:13:34.289Z,61.83
2019-02-14T22:16:05.037Z,77.20
2019-02-14T22:18:35.234Z,72.37
2019-02-14T22:21:05.403Z,57.23
2019-02-14T22:23:35.587Z,60.10
2019-02-14T22:26:05.757Z,52.13
2019-02-14T22:28:35.902Z,50.20
2019-02-14T22:31:06.056Z,58.90
2019-02-14T22:33:36.268Z,57.83
2019-02-14T22:36:06.578Z,73.67
2019-02-14T22:38:36.842Z,51.73
2019-02-14T22:41:07.174Z,64.80
2019-02-14T22:43:37.292Z,55.50
2019-02-14T22:46:07.534Z,54.00
2019-02-14T22:48:37.733Z,54.53
2019-02-14T22:51:07.900Z,62.00
2019-02-14T22:53:38.024Z,70.17
2019-02-14T22:56:08.256Z,60.53
2019-02-14T22:58:38.379Z,64.47
2019-02-14T23:01:08.649Z,64.73
2019-02-14T23:03:38.847Z,54.40
2019-02-14T23:06:09.020Z,77.23
2019-02-14T23:08:39.134Z,67.13
2019-02-14T23:11:09.398Z,57.23
2019-02-14T23:13:39.514Z,66.47
2019-02-14T23:16:09.706Z,74.37
2019-02-14T23:18:39.906Z,77.57
2019-02-14T23:21:10.074Z,60.07
2019-02-14T23:23:40.288Z,70.57
2019-02-14T23:26:10.537Z,62.87
2019-02-14T23:28:40.752Z,68.00
2019-02-14T23:31:11.012Z,59.67
2019-02-14T23:33:41.217Z,57.67
2019-02-14T23:36:11.477Z,68.67
2019-02-14T23:38:42.569Z,55.70
2019-02-14T23:41:12.886Z,60.20
2019-02-14T23:43:43.065Z,52.63
2019-02-14T23:46:13.301Z,57.17
2019-02-14T23:48:43.506Z,59.97
2019-02-14T23:51:13.750Z,69.10
2019-02-14T23:53:43.882Z,67.17
2019-02-14T23:56:14.145Z,56.40
2019-02-14T23:58:44.327Z,50.97
